Aurora, Ohio
Current Conditions -  °F | °C
As of 6:42 AM on Thursday 18 Dec 2014 (Local Time) from KPOV Reporting Station
NA  
Wind Chill: -7°   Ceiling: NA
Heat Index: -2°   Visibility: 10mi
Dew Point: -7°   Wind: 8mph
Humidity: 72%   Direction: 260°W
Pressure: 30.17"   Gusts: NA
Location:  41.31°N, 81.34°W
Report Text: KPOV 181142Z AUTO 26007KT 10SM M02/M07 A3017 RMK AO2 T10231067
Loading
Personal Weather Stations






























Interactive Weather Map New forecast layout! Learn more

10-Day Weather Forecast

Advertisements
Track Severe Weather on mobile